Time;durP1;ratioP1;P1;durP2;ratioP2;P2;SDS_P1;SDS_P2;PMS_P1;PMS_P2;Temp;Humidity;BMP_temperature;BMP_pressure;BME280_temperature;BME280_humidity;BME280_pressure;Samples;Min_cycle;Max_cycle;Signal;HPM_P1;HPM_P2
2022/03/30 00:02:23;;;;;;;25.42;16.52;;;11.40;1.00;;;;;;7389310;19;20024;-66
2022/03/30 00:04:53;;;;;;;27.63;16.70;;;11.40;1.00;;;;;;7388454;19;20010;-63
2022/03/30 00:07:24;;;;;;;27.05;16.33;;;11.50;1.00;;;;;;7366491;19;20513;-63
2022/03/30 00:09:54;;;;;;;24.55;16.40;;;11.50;1.00;;;;;;7360652;19;20134;-63
2022/03/30 00:12:24;;;;;;;25.10;16.23;;;11.50;1.00;;;;;;7365254;19;20006;-63
2022/03/30 00:14:56;;;;;;;26.65;17.63;;;11.50;1.00;;;;;;7366587;19;20478;-63
2022/03/30 00:17:26;;;;;;;26.88;16.55;;;11.60;1.00;;;;;;7366527;19;20042;-64
2022/03/30 00:19:57;;;;;;;27.85;16.92;;;11.70;1.00;;;;;;7381269;19;20020;-63
2022/03/30 00:22:27;;;;;;;28.70;18.23;;;11.40;1.00;;;;;;7364415;19;20010;-63
2022/03/30 00:24:58;;;;;;;27.48;18.20;;;11.20;1.00;;;;;;7364992;19;20014;-63
2022/03/30 00:27:27;;;;;;;25.23;16.90;;;11.10;1.00;;;;;;7367597;19;20022;-63
2022/03/30 00:30:00;;;;;;;29.40;17.38;;;11.00;1.00;;;;;;7358690;19;20014;-63
2022/03/30 00:32:30;;;;;;;32.42;17.50;;;10.90;1.00;;;;;;7366116;19;20466;-64
2022/03/30 00:35:00;;;;;;;27.05;15.40;;;10.90;1.00;;;;;;7387423;19;20561;-62
2022/03/30 00:37:29;;;;;;;31.10;17.17;;;10.80;1.00;;;;;;7365919;19;20473;-63
2022/03/30 00:39:59;;;;;;;30.73;16.55;;;10.90;1.00;;;;;;7359083;19;20021;-63
2022/03/30 00:42:29;;;;;;;32.97;18.00;;;10.90;1.00;;;;;;7365738;19;20691;-63
2022/03/30 00:45:10;;;;;;;32.10;16.95;;;10.90;1.00;;;;;;7365000;19;20488;-63
2022/03/30 00:47:41;;;;;;;29.65;17.13;;;11.00;1.00;;;;;;7367326;19;20018;-64
2022/03/30 00:50:13;;;;;;;27.42;17.45;;;11.00;1.00;;;;;;7379572;19;20040;-63
2022/03/30 00:52:43;;;;;;;33.05;17.27;;;11.00;1.00;;;;;;7365294;19;20025;-64
2022/03/30 00:55:13;;;;;;;26.35;16.23;;;11.00;1.00;;;;;;7363524;19;20103;-63
2022/03/30 00:57:45;;;;;;;31.13;16.95;;;11.00;1.00;;;;;;7367562;19;20082;-63
2022/03/30 01:00:19;;;;;;;26.83;17.08;;;11.10;1.00;;;;;;7359296;19;20097;-64
2022/03/30 01:02:51;;;;;;;28.60;18.38;;;11.10;1.00;;;;;;7365435;19;20026;-64
2022/03/30 01:05:21;;;;;;;30.13;17.70;;;11.10;1.00;;;;;;7385970;19;20014;-63
2022/03/30 01:07:51;;;;;;;30.83;17.50;;;11.20;1.00;;;;;;7365939;19;20022;-63
2022/03/30 01:10:22;;;;;;;37.15;18.88;;;11.20;1.00;;;;;;7359223;19;20074;-63
2022/03/30 01:12:54;;;;;;;34.35;18.38;;;11.20;1.00;;;;;;7341438;19;20018;-63
2022/03/30 01:15:27;;;;;;;29.92;18.25;;;11.20;1.00;;;;;;7345659;19;20472;-64
2022/03/30 01:17:57;;;;;;;30.33;18.42;;;11.20;1.00;;;;;;7348963;19;20007;-63
2022/03/30 01:20:28;;;;;;;28.77;17.73;;;11.10;1.00;;;;;;7346664;19;20411;-63
2022/03/30 01:23:04;;;;;;;27.08;17.85;;;11.20;1.00;;;;;;7379424;19;20018;-62
2022/03/30 01:25:35;;;;;;;33.15;19.02;;;11.20;1.00;;;;;;7355042;19;20015;-62
2022/03/30 01:28:06;;;;;;;27.42;18.13;;;11.20;1.00;;;;;;7364370;19;20014;-62
2022/03/30 01:33:18;;;;;;;28.73;18.17;;;11.20;1.00;;;;;;7368150;19;20053;-63
2022/03/30 01:35:48;;;;;;;31.75;18.70;;;11.30;1.00;;;;;;7361406;19;20034;-64
2022/03/30 01:38:21;;;;;;;33.15;17.98;;;11.30;1.00;;;;;;7391804;19;20014;-64
2022/03/30 01:40:50;;;;;;;30.45;17.05;;;11.30;1.00;;;;;;7368540;19;20038;-64
2022/03/30 01:43:21;;;;;;;28.48;18.52;;;11.30;1.00;;;;;;7366555;19;20010;-62
2022/03/30 01:45:51;;;;;;;31.98;17.73;;;11.30;1.00;;;;;;7363382;19;20003;-64
2022/03/30 01:48:21;;;;;;;28.63;18.02;;;11.30;1.00;;;;;;7368587;19;20015;-63
2022/03/30 01:50:51;;;;;;;32.25;18.48;;;11.40;1.00;;;;;;7365553;19;20072;-62
2022/03/30 01:53:24;;;;;;;27.48;17.08;;;11.40;1.00;;;;;;7389131;19;20018;-62
2022/03/30 01:55:54;;;;;;;31.25;17.60;;;11.40;1.00;;;;;;7362657;19;20498;-63
2022/03/30 01:58:24;;;;;;;27.00;17.55;;;11.50;1.00;;;;;;7368408;19;20017;-63
2022/03/30 02:00:54;;;;;;;27.02;17.02;;;11.40;1.00;;;;;;7369367;19;20090;-63
2022/03/30 02:03:25;;;;;;;30.98;18.05;;;11.40;1.00;;;;;;7368237;19;20003;-64
2022/03/30 02:05:56;;;;;;;29.73;17.42;;;11.40;1.00;;;;;;7362799;19;20006;-63
2022/03/30 02:08:29;;;;;;;32.65;18.88;;;11.50;1.00;;;;;;7367135;19;20018;-63
2022/03/30 02:10:59;;;;;;;29.83;17.27;;;11.40;1.00;;;;;;7388276;19;20738;-63
2022/03/30 02:13:29;;;;;;;32.97;19.02;;;11.50;1.00;;;;;;7367038;19;20026;-62
2022/03/30 02:15:59;;;;;;;35.35;19.63;;;11.50;1.00;;;;;;7362051;19;20014;-63
2022/03/30 02:18:29;;;;;;;29.65;18.65;;;11.50;1.00;;;;;;7367576;19;20059;-63
2022/03/30 02:20:59;;;;;;;30.83;18.50;;;11.40;1.00;;;;;;7368574;19;20021;-63
2022/03/30 02:23:32;;;;;;;28.65;17.27;;;11.40;1.00;;;;;;7367646;19;20620;-64
2022/03/30 02:26:02;;;;;;;32.90;18.23;;;11.40;1.00;;;;;;7384087;19;20026;-62
2022/03/30 02:28:32;;;;;;;31.00;18.30;;;11.40;1.00;;;;;;7367285;19;20044;-63
2022/03/30 02:31:02;;;;;;;31.45;18.30;;;11.30;1.00;;;;;;7367908;19;20013;-62
2022/03/30 02:33:32;;;;;;;34.47;19.92;;;11.20;1.00;;;;;;7366445;19;20039;-62
2022/03/30 02:36:02;;;;;;;32.80;17.88;;;11.10;1.00;;;;;;7360977;19;20021;-62
2022/03/30 02:38:34;;;;;;;27.45;18.30;;;11.00;1.00;;;;;;7366432;19;20013;-62
2022/03/30 02:41:06;;;;;;;37.53;19.67;;;11.00;1.00;;;;;;7388688;19;20019;-63
2022/03/30 02:43:36;;;;;;;35.00;19.77;;;10.90;1.00;;;;;;7366016;19;20474;-63
2022/03/30 02:46:07;;;;;;;31.00;18.88;;;10.80;1.00;;;;;;7360986;19;20017;-63
2022/03/30 02:48:37;;;;;;;30.95;18.75;;;10.70;1.00;;;;;;7366836;19;20010;-63
2022/03/30 02:51:09;;;;;;;30.65;19.42;;;10.70;1.00;;;;;;7365271;19;20486;-63
2022/03/30 02:53:42;;;;;;;31.95;19.20;;;10.60;1.00;;;;;;7366700;19;20015;-63
2022/03/30 02:56:12;;;;;;;30.98;19.60;;;10.60;1.00;;;;;;7384896;19;20014;-63
2022/03/30 02:58:41;;;;;;;33.13;19.35;;;10.60;1.00;;;;;;7366756;19;20028;-62
2022/03/30 03:01:11;;;;;;;33.70;20.13;;;10.60;1.00;;;;;;7368026;19;20069;-62
2022/03/30 03:03:42;;;;;;;34.47;19.45;;;10.60;1.00;;;;;;7365408;19;20006;-62
2022/03/30 03:06:12;;;;;;;35.00;20.30;;;10.60;1.00;;;;;;7360966;19;20015;-63
2022/03/30 03:08:44;;;;;;;33.17;19.33;;;10.50;1.00;;;;;;7366227;19;20023;-62
2022/03/30 03:11:14;;;;;;;31.40;19.50;;;10.50;1.00;;;;;;7387116;19;20086;-62
2022/03/30 03:13:44;;;;;;;33.17;20.73;;;10.50;1.00;;;;;;7366330;19;20013;-62
2022/03/30 03:16:15;;;;;;;34.80;20.10;;;10.50;1.00;;;;;;7360731;19;20138;-62
2022/03/30 03:18:45;;;;;;;38.22;19.77;;;10.50;1.00;;;;;;7365209;19;20025;-63
2022/03/30 03:21:15;;;;;;;36.10;19.60;;;10.30;1.00;;;;;;7366239;19;20082;-63
2022/03/30 03:23:47;;;;;;;33.70;19.58;;;10.30;1.00;;;;;;7366820;19;20010;-63
2022/03/30 03:26:17;;;;;;;32.25;19.50;;;10.40;1.00;;;;;;7381308;19;20027;-63
2022/03/30 03:28:47;;;;;;;30.15;18.48;;;10.40;1.00;;;;;;7361168;19;20026;-63
2022/03/30 03:31:17;;;;;;;35.60;20.05;;;10.40;1.00;;;;;;7361519;19;20354;-63
2022/03/30 03:33:47;;;;;;;37.70;21.35;;;10.40;1.00;;;;;;7363686;19;20014;-62
2022/03/30 03:36:16;;;;;;;31.65;19.08;;;10.50;1.00;;;;;;7360408;19;20073;-63
2022/03/30 03:38:49;;;;;;;33.05;20.77;;;10.50;1.00;;;;;;7364363;19;20771;-63
2022/03/30 03:41:19;;;;;;;32.28;21.13;;;10.30;1.00;;;;;;7387341;19;20565;-63
2022/03/30 03:43:50;;;;;;;30.52;20.17;;;10.40;1.00;;;;;;7363786;19;20021;-62
2022/03/30 03:46:19;;;;;;;30.40;19.70;;;10.40;1.00;;;;;;7358859;19;20040;-62
2022/03/30 03:48:55;;;;;;;31.95;20.23;;;10.40;1.00;;;;;;7364634;19;20474;-62
2022/03/30 03:51:26;;;;;;;36.05;21.42;;;10.50;1.00;;;;;;7365193;19;20018;-62
2022/03/30 03:53:58;;;;;;;32.65;20.05;;;10.60;1.00;;;;;;7364177;19;20078;-62
2022/03/30 03:56:28;;;;;;;38.40;21.35;;;10.50;1.00;;;;;;7360368;19;20467;-63
2022/03/30 03:58:58;;;;;;;38.08;21.63;;;10.50;1.00;;;;;;7386205;19;20077;-62
2022/03/30 04:01:29;;;;;;;33.33;21.70;;;10.60;1.00;;;;;;7362916;19;20126;-62
2022/03/30 04:03:59;;;;;;;36.72;21.88;;;10.60;1.00;;;;;;7363303;19;20011;-62
2022/03/30 04:06:33;;;;;;;35.45;21.15;;;10.60;1.00;;;;;;7358525;19;20017;-62
2022/03/30 04:09:06;;;;;;;37.67;20.95;;;10.70;1.00;;;;;;7363599;19;20088;-62
2022/03/30 04:11:36;;;;;;;36.90;20.95;;;10.60;1.00;;;;;;7364200;19;20025;-62
2022/03/30 04:14:06;;;;;;;34.80;20.75;;;10.70;1.00;;;;;;7385671;19;20412;-62
2022/03/30 04:16:36;;;;;;;35.42;20.67;;;10.70;1.00;;;;;;7357817;19;20481;-62
2022/03/30 04:19:06;;;;;;;38.00;21.40;;;10.70;1.00;;;;;;7362911;19;20362;-62
2022/03/30 04:21:36;;;;;;;33.10;19.85;;;10.70;1.00;;;;;;7364952;19;20054;-62
2022/03/30 04:24:09;;;;;;;33.72;21.00;;;10.60;1.00;;;;;;7363626;19;20010;-62
2022/03/30 04:26:39;;;;;;;32.33;20.75;;;10.70;1.00;;;;;;7358849;19;20021;-62
2022/03/30 04:29:09;;;;;;;37.25;21.30;;;10.70;1.00;;;;;;7385708;19;20038;-62
2022/03/30 04:31:39;;;;;;;32.80;21.38;;;10.60;1.00;;;;;;7361392;19;20017;-63
2022/03/30 04:34:08;;;;;;;35.60;21.95;;;10.60;1.00;;;;;;7362621;19;20545;-62
2022/03/30 04:36:38;;;;;;;38.90;22.90;;;10.30;1.00;;;;;;7358963;19;20006;-62
2022/03/30 04:39:11;;;;;;;35.67;21.45;;;10.40;1.00;;;;;;7363483;19;20452;-62
2022/03/30 04:41:41;;;;;;;36.22;22.05;;;10.30;1.00;;;;;;7362886;19;20011;-62
2022/03/30 04:44:11;;;;;;;44.83;22.92;;;10.30;1.00;;;;;;7384446;19;20018;-62
2022/03/30 04:46:40;;;;;;;35.70;21.20;;;10.20;2.80;;;;;;7357233;19;20011;-61
2022/03/30 04:49:12;;;;;;;42.03;23.05;;;10.20;2.90;;;;;;7362003;19;20015;-61
2022/03/30 04:51:42;;;;;;;37.25;23.08;;;10.10;5.40;;;;;;7364087;19;20014;-62
2022/03/30 04:54:15;;;;;;;38.38;21.77;;;10.10;5.60;;;;;;7359392;19;20023;-63
2022/03/30 04:56:45;;;;;;;35.17;22.08;;;10.10;6.40;;;;;;7356638;19;20167;-61
2022/03/30 04:59:15;;;;;;;40.97;22.85;;;10.00;7.10;;;;;;7384367;19;20019;-62
2022/03/30 05:01:45;;;;;;;39.55;22.38;;;10.10;10.90;;;;;;7363479;19;20525;-62
2022/03/30 05:04:15;;;;;;;36.38;20.52;;;10.00;10.10;;;;;;7360127;19;20090;-62
2022/03/30 05:06:45;;;;;;;36.75;20.92;;;9.80;8.70;;;;;;7358436;19;20007;-62
2022/03/30 05:09:17;;;;;;;38.55;21.52;;;9.90;9.20;;;;;;7363259;19;20117;-62
2022/03/30 05:11:47;;;;;;;35.78;20.48;;;9.80;11.10;;;;;;7362016;19;20620;-62
2022/03/30 05:14:17;;;;;;;40.00;19.83;;;9.70;11.90;;;;;;7382715;19;20078;-62
2022/03/30 05:16:47;;;;;;;38.35;19.75;;;9.70;15.20;;;;;;7356931;19;20017;-62
2022/03/30 05:19:18;;;;;;;39.35;20.67;;;9.60;16.40;;;;;;7361106;19;20047;-62
2022/03/30 05:21:48;;;;;;;35.90;20.23;;;9.50;18.10;;;;;;7362312;19;20764;-62
2022/03/30 05:24:20;;;;;;;39.78;20.50;;;9.40;19.50;;;;;;7361686;19;20078;-61
2022/03/30 05:26:50;;;;;;;38.47;21.67;;;9.40;22.40;;;;;;7355610;19;20015;-62
2022/03/30 05:29:20;;;;;;;35.65;20.23;;;9.30;23.00;;;;;;7382672;19;20014;-62
2022/03/30 05:31:50;;;;;;;34.85;20.05;;;9.40;26.30;;;;;;7359846;19;20014;-62
2022/03/30 05:34:40;;;;;;;41.70;21.42;;;9.30;28.90;;;;;;7358239;19;20081;-62
2022/03/30 05:37:10;;;;;;;35.67;21.35;;;9.40;30.80;;;;;;7354618;19;20009;-61
2022/03/30 05:39:42;;;;;;;35.33;20.30;;;9.20;31.50;;;;;;7359590;19;20011;-61
2022/03/30 05:42:14;;;;;;;42.53;21.33;;;9.20;33.30;;;;;;7361238;19;20097;-60
2022/03/30 05:44:45;;;;;;;39.08;21.70;;;9.10;35.00;;;;;;7359027;19;20011;-60
2022/03/30 05:47:16;;;;;;;43.58;22.88;;;9.20;37.30;;;;;;7378638;19;20257;-61
2022/03/30 05:49:46;;;;;;;44.42;23.17;;;9.10;37.70;;;;;;7360695;19;20035;-61
2022/03/30 05:52:16;;;;;;;47.45;24.30;;;9.20;39.30;;;;;;7358965;19;20015;-62
2022/03/30 05:54:49;;;;;;;40.38;24.52;;;9.10;40.40;;;;;;7357274;19;20011;-60
2022/03/30 05:57:21;;;;;;;43.25;23.55;;;8.90;39.00;;;;;;7352853;19;20102;-61
2022/03/30 05:59:51;;;;;;;38.60;23.05;;;8.80;39.50;;;;;;7360294;19;20082;-61
2022/03/30 06:02:21;;;;;;;47.13;25.13;;;8.90;43.40;;;;;;7381578;19;20483;-61
2022/03/30 06:04:53;;;;;;;43.42;25.48;;;8.80;41.50;;;;;;7359419;19;20006;-61
2022/03/30 06:07:23;;;;;;;46.03;27.00;;;8.90;43.50;;;;;;7358474;19;20014;-62
2022/03/30 06:09:56;;;;;;;53.03;27.35;;;8.90;45.00;;;;;;7367222;19;20022;-62
2022/03/30 06:12:26;;;;;;;47.65;25.90;;;8.90;45.30;;;;;;7367060;19;20019;-62
2022/03/30 06:14:56;;;;;;;48.35;25.33;;;8.70;42.60;;;;;;7365722;19;20052;-62
2022/03/30 06:17:26;;;;;;;43.33;26.05;;;8.90;45.20;;;;;;7369660;19;20015;-62
2022/03/30 06:19:59;;;;;;;46.95;26.05;;;8.80;46.00;;;;;;7389303;19;20021;-63
2022/03/30 06:22:30;;;;;;;41.85;25.20;;;8.90;47.20;;;;;;7367966;19;20366;-61
2022/03/30 06:25:04;;;;;;;44.75;26.15;;;8.90;45.60;;;;;;7366046;19;20022;-60
2022/03/30 06:27:34;;;;;;;55.75;26.70;;;8.90;46.10;;;;;;7360499;19;20078;-61
2022/03/30 06:30:04;;;;;;;54.72;27.92;;;8.90;47.50;;;;;;7367202;19;20486;-62
2022/03/30 06:32:35;;;;;;;51.78;29.08;;;9.00;48.60;;;;;;7366765;19;20020;-61
2022/03/30 06:35:05;;;;;;;51.97;29.95;;;9.00;48.50;;;;;;7387801;19;20010;-62
2022/03/30 06:37:35;;;;;;;55.78;29.73;;;9.00;49.10;;;;;;7359056;19;20053;-61
2022/03/30 06:40:10;;;;;;;46.10;27.10;;;9.00;49.10;;;;;;7364520;19;20393;-62
2022/03/30 06:42:41;;;;;;;47.33;27.17;;;9.00;48.40;;;;;;7367509;19;20018;-62
2022/03/30 06:45:13;;;;;;;49.40;28.48;;;9.00;47.30;;;;;;7365886;19;20013;-61
2022/03/30 06:47:43;;;;;;;53.30;30.33;;;9.10;48.10;;;;;;7359845;19;20375;-60
2022/03/30 06:50:14;;;;;;;52.75;31.20;;;9.10;48.70;;;;;;7385186;19;20015;-60
2022/03/30 06:52:43;;;;;;;52.53;29.23;;;9.10;49.40;;;;;;7365365;19;20018;-61
2022/03/30 06:55:16;;;;;;;47.50;29.98;;;8.90;49.30;;;;;;7362811;19;20007;-61
2022/03/30 06:57:47;;;;;;;51.58;29.15;;;9.00;49.60;;;;;;7360914;19;20073;-61
2022/03/30 07:00:18;;;;;;;53.42;29.65;;;9.00;49.60;;;;;;7366232;19;20017;-61
2022/03/30 07:02:48;;;;;;;53.00;29.17;;;9.10;49.70;;;;;;7367094;19;20022;-61
2022/03/30 07:05:18;;;;;;;48.58;27.25;;;9.20;49.80;;;;;;7385021;19;20014;-61
2022/03/30 07:10:33;;;;;;;52.33;29.02;;;9.30;49.00;;;;;;7364591;19;20087;-61
2022/03/30 07:13:06;;;;;;;48.83;29.45;;;9.20;47.90;;;;;;7364874;19;20089;-61
2022/03/30 07:15:38;;;;;;;49.00;28.45;;;9.30;49.00;;;;;;7362212;19;20014;-60
2022/03/30 07:18:09;;;;;;;56.58;28.70;;;9.40;49.00;;;;;;7359691;19;20070;-62
2022/03/30 07:20:39;;;;;;;44.67;26.73;;;9.40;49.10;;;;;;7365451;19;20078;-61
2022/03/30 07:23:10;;;;;;;53.28;27.92;;;9.30;48.10;;;;;;7388508;19;20014;-62
2022/03/30 07:25:44;;;;;;;52.25;28.52;;;9.30;47.60;;;;;;7359835;19;20007;-61
2022/03/30 07:28:15;;;;;;;45.25;26.05;;;9.30;47.50;;;;;;7362584;19;20015;-61
2022/03/30 07:30:48;;;;;;;51.75;26.67;;;9.20;45.70;;;;;;7365072;19;20398;-62
2022/03/30 07:33:19;;;;;;;44.35;27.27;;;9.30;47.70;;;;;;7365390;19;20109;-61
2022/03/30 07:35:49;;;;;;;50.63;27.35;;;9.30;48.00;;;;;;7358324;19;20057;-62
2022/03/30 07:38:20;;;;;;;47.25;26.92;;;9.40;49.90;;;;;;7384740;19;20017;-61
2022/03/30 07:40:55;;;;;;;59.05;34.10;;;9.30;49.80;;;;;;7364821;19;20021;-61
2022/03/30 07:43:25;;;;;;;44.28;25.63;;;9.30;49.00;;;;;;7364248;19;20439;-62
2022/03/30 07:45:55;;;;;;;40.03;23.85;;;9.30;48.30;;;;;;7355759;19;20014;-61
2022/03/30 07:48:24;;;;;;;41.47;23.70;;;9.30;45.80;;;;;;7362579;19;20014;-62
2022/03/30 07:50:54;;;;;;;45.83;25.10;;;9.40;47.10;;;;;;7364346;19;20445;-61
2022/03/30 07:53:30;;;;;;;43.65;25.17;;;9.60;47.50;;;;;;7362336;19;20019;-62
2022/03/30 07:56:03;;;;;;;45.15;24.90;;;9.60;46.20;;;;;;7378374;19;20098;-62
2022/03/30 07:58:33;;;;;;;40.45;22.50;;;9.70;47.40;;;;;;7363470;19;20182;-61
2022/03/30 08:01:03;;;;;;;38.85;22.17;;;9.60;46.10;;;;;;7364396;19;20441;-61
2022/03/30 08:03:33;;;;;;;39.70;20.60;;;9.70;46.00;;;;;;7365417;19;20371;-62
2022/03/30 08:06:03;;;;;;;33.97;20.90;;;9.80;44.90;;;;;;7356853;19;20018;-61
2022/03/30 08:08:33;;;;;;;44.75;22.98;;;9.70;41.50;;;;;;7363934;19;20014;-63
2022/03/30 08:11:05;;;;;;;43.70;22.00;;;9.50;39.90;;;;;;7382305;19;20014;-62
2022/03/30 08:13:39;;;;;;;44.53;23.45;;;9.70;41.90;;;;;;7362374;19;20006;-65
2022/03/30 08:16:08;;;;;;;43.97;23.48;;;9.70;41.50;;;;;;7355640;19;20405;-61
2022/03/30 08:18:38;;;;;;;47.88;23.17;;;9.70;42.90;;;;;;7364240;19;20070;-63
2022/03/30 08:23:51;;;;;;;41.60;22.38;;;9.80;42.80;;;;;;7361742;19;20086;-63
2022/03/30 08:26:23;;;;;;;40.65;23.75;;;9.80;41.70;;;;;;7377484;19;20017;-63
2022/03/30 08:28:53;;;;;;;38.10;23.35;;;10.10;41.30;;;;;;7361951;19;20506;-62
2022/03/30 08:31:23;;;;;;;42.22;23.17;;;10.20;40.10;;;;;;7361835;19;20770;-62
2022/03/30 08:33:53;;;;;;;44.40;22.08;;;10.30;41.30;;;;;;7361785;19;20543;-60
2022/03/30 08:36:26;;;;;;;32.92;21.27;;;10.40;41.10;;;;;;7356231;19;20407;-62
2022/03/30 08:38:57;;;;;;;43.88;22.27;;;10.30;34.90;;;;;;7361023;19;20014;-63
2022/03/30 08:41:29;;;;;;;42.92;22.05;;;10.40;34.80;;;;;;7366463;19;20025;-61
2022/03/30 08:44:00;;;;;;;66.18;33.10;;;10.40;33.30;;;;;;7383669;19;20040;-62
2022/03/30 08:46:30;;;;;;;48.05;27.33;;;10.60;33.30;;;;;;7355205;19;20082;-62
2022/03/30 08:49:00;;;;;;;61.05;29.40;;;10.50;31.80;;;;;;7362316;19;20010;-62
2022/03/30 08:51:30;;;;;;;68.78;34.88;;;10.40;32.60;;;;;;7362792;19;20022;-62
2022/03/30 08:54:00;;;;;;;66.35;35.50;;;10.40;35.90;;;;;;7360152;19;20010;-62
2022/03/30 08:56:32;;;;;;;79.65;36.90;;;10.60;38.70;;;;;;7355757;19;20076;-63
2022/03/30 08:59:06;;;;;;;77.72;34.38;;;10.70;36.20;;;;;;7383064;19;20015;-62
2022/03/30 09:01:38;;;;;;;70.57;34.53;;;10.50;34.40;;;;;;7360134;19;20017;-62
2022/03/30 09:04:12;;;;;;;67.85;36.28;;;10.60;33.90;;;;;;7362337;19;20002;-62
2022/03/30 09:06:44;;;;;;;75.65;38.42;;;10.70;35.70;;;;;;7355780;19;20066;-62
2022/03/30 09:09:16;;;;;;;72.72;37.08;;;10.80;36.10;;;;;;7361870;19;20174;-62
2022/03/30 09:11:53;;;;;;;90.03;40.00;;;10.70;33.10;;;;;;7359701;19;20026;-62
2022/03/30 09:14:25;;;;;;;81.97;40.65;;;10.90;30.80;;;;;;7379817;19;20022;-62
2022/03/30 09:16:57;;;;;;;76.90;40.40;;;10.80;29.40;;;;;;7354055;19;20039;-61
2022/03/30 09:19:28;;;;;;;80.47;38.78;;;10.90;30.40;;;;;;7361117;19;20019;-62
2022/03/30 09:22:00;;;;;;;75.70;38.42;;;11.00;29.00;;;;;;7360078;19;20015;-62
2022/03/30 09:24:35;;;;;;;73.78;36.88;;;10.70;29.60;;;;;;7358522;19;20451;-63
2022/03/30 09:27:10;;;;;;;80.60;40.38;;;11.00;29.60;;;;;;7353113;19;20012;-61
2022/03/30 09:29:41;;;;;;;72.90;35.70;;;10.90;30.00;;;;;;7360957;19;20033;-62
2022/03/30 09:32:28;;;;;;;72.57;35.53;;;10.90;30.00;;;;;;7369673;19;20414;-62
2022/03/30 09:34:58;;;;;;;72.55;35.03;;;10.70;32.60;;;;;;7379625;19;20019;-62
2022/03/30 09:37:28;;;;;;;68.72;35.40;;;10.70;34.30;;;;;;7350733;19;20016;-62
2022/03/30 09:39:57;;;;;;;76.32;35.95;;;10.60;33.60;;;;;;7359992;19;20006;-62
2022/03/30 09:42:32;;;;;;;65.80;33.90;;;10.60;35.40;;;;;;7367349;19;20015;-62
2022/03/30 09:45:07;;;;;;;68.93;33.85;;;10.60;34.60;;;;;;7366331;19;20517;-62
2022/03/30 09:47:41;;;;;;;72.28;34.55;;;10.70;34.50;;;;;;7360029;19;20019;-62
2022/03/30 09:50:16;;;;;;;64.68;32.70;;;10.80;35.90;;;;;;7390505;19;20616;-61
2022/03/30 09:52:47;;;;;;;63.80;32.45;;;10.80;35.00;;;;;;7365858;19;20024;-62
2022/03/30 09:55:19;;;;;;;69.78;33.30;;;10.70;34.00;;;;;;7364064;19;20749;-61
2022/03/30 09:57:52;;;;;;;66.50;34.95;;;10.50;35.10;;;;;;7361975;19;20070;-62
2022/03/30 10:00:24;;;;;;;62.20;32.57;;;10.50;37.50;;;;;;7367487;19;20039;-62
2022/03/30 10:02:55;;;;;;;72.30;33.83;;;10.50;35.90;;;;;;7367987;19;20313;-63
2022/03/30 10:05:26;;;;;;;64.55;33.45;;;10.50;36.70;;;;;;7382014;19;20051;-66
2022/03/30 10:07:58;;;;;;;62.47;31.50;;;10.60;37.00;;;;;;7383334;19;20018;-62
2022/03/30 10:10:28;;;;;;;58.22;31.58;;;10.60;35.20;;;;;;7367380;19;20587;-62
2022/03/30 10:13:01;;;;;;;58.45;31.20;;;10.60;33.70;;;;;;7367995;19;20689;-62
2022/03/30 10:15:32;;;;;;;55.50;30.75;;;10.70;34.80;;;;;;7363915;19;20052;-62
2022/03/30 10:18:02;;;;;;;60.17;31.23;;;10.50;37.40;;;;;;7361448;19;20082;-62
2022/03/30 10:20:32;;;;;;;60.42;29.63;;;10.70;38.60;;;;;;7368947;19;20017;-62
2022/03/30 10:23:17;;;;;;;47.22;24.55;;;10.70;39.10;;;;;;7389943;19;20007;-62
2022/03/30 10:25:55;;;;;;;;;;;10.80;37.50;;;;;;7359556;19;20030;-62
2022/03/30 10:28:35;;;;;;;35.47;17.13;;;10.70;32.90;;;;;;7360422;19;19939;-62
2022/03/30 10:31:05;;;;;;;33.78;13.18;;;10.70;30.70;;;;;;7368508;19;20066;-62
2022/03/30 10:33:40;;;;;;;27.33;13.50;;;10.70;26.70;;;;;;7366667;19;20584;-62
2022/03/30 10:36:25;;;;;;;30.30;12.82;;;10.80;28.20;;;;;;7359103;19;20081;-62
2022/03/30 10:39:27;;;;;;;26.50;11.90;;;10.90;26.30;;;;;;7366092;19;20034;-62
2022/03/30 10:42:16;;;;;;;25.42;10.98;;;10.80;24.30;;;;;;7367020;19;20015;-62
2022/03/30 10:44:51;;;;;;;23.10;10.57;;;11.00;21.60;;;;;;7365626;19;20071;-63
2022/03/30 10:47:21;;;;;;;;;;;11.00;21.80;;;;;;7381643;19;20361;-63
2022/03/30 10:49:54;;;;;;;21.38;10.23;;;11.00;22.70;;;;;;7366403;19;19921;-62
2022/03/30 10:52:43;;;;;;;20.80;10.38;;;10.80;22.60;;;;;;7363287;19;20486;-62
2022/03/30 10:55:38;;;;;;;24.42;11.85;;;11.00;24.00;;;;;;7362808;19;20740;-62
2022/03/30 10:58:08;;;;;;;;;;;11.00;22.70;;;;;;7360793;19;20011;-62
2022/03/30 11:00:42;;;;;;;24.65;10.85;;;11.00;22.70;;;;;;7365678;19;19910;-62
2022/03/30 11:03:16;;;;;;;25.80;10.40;;;11.10;21.50;;;;;;7366095;19;20014;-61
2022/03/30 11:05:47;;;;;;;21.73;9.63;;;11.20;21.30;;;;;;7357612;19;20068;-62
2022/03/30 11:08:48;;;;;;;21.40;10.05;;;11.30;18.20;;;;;;7382797;19;20039;-63
2022/03/30 11:11:26;;;;;;;25.02;11.05;;;11.00;17.90;;;;;;7364871;19;20090;-61
2022/03/30 11:14:25;;;;;;;24.13;10.02;;;11.10;19.40;;;;;;7364217;19;20067;-61
2022/03/30 11:16:58;;;;;;;21.65;9.60;;;11.30;17.10;;;;;;7356668;19;20478;-61
2022/03/30 11:19:34;;;;;;;20.15;9.98;;;11.40;19.80;;;;;;7363369;19;20075;-61
2022/03/30 11:22:12;;;;;;;18.77;9.40;;;11.40;17.20;;;;;;7364381;19;20085;-62
2022/03/30 11:24:44;;;;;;;21.77;9.15;;;11.40;17.90;;;;;;7362877;19;20572;-61
2022/03/30 11:27:20;;;;;;;18.35;8.13;;;11.20;16.70;;;;;;7355413;19;20014;-61
2022/03/30 11:29:59;;;;;;;13.90;7.10;;;11.10;16.80;;;;;;7362349;19;20546;-62
2022/03/30 11:32:43;;;;;;;17.45;7.30;;;11.00;16.90;;;;;;7364596;19;20102;-62
2022/03/30 11:35:17;;;;;;;15.68;7.85;;;11.00;18.70;;;;;;7384241;19;20021;-62
2022/03/30 11:37:48;;;;;;;13.20;7.50;;;11.10;18.20;;;;;;7356888;19;20044;-62
2022/03/30 11:40:20;;;;;;;15.88;7.43;;;11.20;17.00;;;;;;7365364;19;20375;-62
2022/03/30 11:42:52;;;;;;;16.73;8.05;;;11.30;17.00;;;;;;7363567;19;20018;-63
2022/03/30 11:45:42;;;;;;;17.90;8.38;;;11.20;15.80;;;;;;7360339;19;20018;-62
2022/03/30 11:48:15;;;;;;;18.05;7.88;;;11.30;15.80;;;;;;7359333;19;20010;-62
2022/03/30 11:50:47;;;;;;;19.53;8.27;;;11.20;15.80;;;;;;7363158;19;20019;-62
2022/03/30 11:53:21;;;;;;;23.60;8.00;;;11.30;18.80;;;;;;7385631;19;20299;-61
2022/03/30 11:55:54;;;;;;;16.88;8.50;;;11.40;16.00;;;;;;7355251;19;20011;-62
2022/03/30 11:58:29;;;;;;;18.83;8.88;;;11.30;17.10;;;;;;7360333;19;20007;-62
2022/03/30 12:01:00;;;;;;;20.23;8.65;;;11.20;17.20;;;;;;7362912;19;20077;-62
2022/03/30 12:03:33;;;;;;;22.92;9.93;;;11.30;17.30;;;;;;7361563;19;20010;-61
2022/03/30 12:06:05;;;;;;;18.98;8.65;;;11.10;19.90;;;;;;7357288;19;20173;-62
2022/03/30 12:08:43;;;;;;;19.50;8.75;;;10.90;19.20;;;;;;7362488;19;20474;-61
2022/03/30 12:11:13;;;;;;;19.65;9.95;;;11.00;19.20;;;;;;7386989;19;20021;-62
2022/03/30 12:13:44;;;;;;;17.17;9.82;;;10.90;19.70;;;;;;7364118;19;20014;-61
2022/03/30 12:16:15;;;;;;;21.58;9.73;;;10.70;20.90;;;;;;7353940;19;20518;-62
2022/03/30 12:18:50;;;;;;;20.73;9.93;;;10.70;22.50;;;;;;7362974;19;20014;-62
2022/03/30 12:21:22;;;;;;;19.38;10.38;;;10.70;23.80;;;;;;7364275;19;20006;-62
2022/03/30 12:23:54;;;;;;;19.65;9.68;;;10.70;25.10;;;;;;7363446;19;20017;-61
2022/03/30 12:26:44;;;;;;;17.40;10.13;;;10.60;28.50;;;;;;7353351;19;20553;-62
2022/03/30 12:29:16;;;;;;;17.00;10.98;;;10.60;35.10;;;;;;7384037;19;20011;-61
2022/03/30 12:31:53;;;;;;;17.17;9.50;;;10.20;42.20;;;;;;7363335;19;20462;-62
2022/03/30 12:34:29;;;;;;;15.05;10.05;;;9.80;45.00;;;;;;7361237;19;20018;-60
2022/03/30 12:37:01;;;;;;;13.65;10.07;;;9.60;47.90;;;;;;7354769;19;20030;-62
2022/03/30 12:39:38;;;;;;;14.13;10.57;;;9.40;49.90;;;;;;7362169;19;20007;-61
2022/03/30 12:42:10;;;;;;;20.55;13.27;;;9.50;52.00;;;;;;7364058;19;20038;-62
2022/03/30 12:44:42;;;;;;;19.77;13.05;;;9.40;50.40;;;;;;7361407;19;20490;-62
2022/03/30 12:47:18;;;;;;;19.05;12.48;;;9.20;50.70;;;;;;7378208;19;20010;-64
2022/03/30 12:49:55;;;;;;;25.75;15.57;;;9.30;52.50;;;;;;7360867;19;20980;-61
2022/03/30 12:52:32;;;;;;;19.98;12.70;;;9.40;53.70;;;;;;7362445;19;20018;-63
2022/03/30 12:55:18;;;;;;;15.07;9.95;;;9.10;52.10;;;;;;7360664;19;20077;-62
2022/03/30 12:58:00;;;;;;;26.80;15.30;;;9.00;50.40;;;;;;7356381;19;20022;-62
2022/03/30 13:00:36;;;;;;;15.85;11.30;;;9.20;52.20;;;;;;7362521;19;20010;-63
2022/03/30 13:03:14;;;;;;;22.75;14.02;;;9.10;51.60;;;;;;7362957;19;20014;-62
2022/03/30 13:05:50;;;;;;;18.67;12.25;;;8.90;52.30;;;;;;7355894;19;20542;-62
2022/03/30 13:08:21;;;;;;;18.83;12.90;;;8.80;51.70;;;;;;7383329;19;20041;-63
2022/03/30 13:10:55;;;;;;;26.70;15.57;;;9.00;51.90;;;;;;7361659;19;20514;-61